Time;durP1;ratioP1;P1;durP2;ratioP2;P2;SDS_P1;SDS_P2;PMS_P1;PMS_P2;Temp;Humidity;BMP_temperature;BMP_pressure;BME280_temperature;BME280_humidity;BME280_pressure;Samples;Min_cycle;Max_cycle;Signal;HPM_P1;HPM_P2
2023/12/02 00:01:28;;;;;;;8.73;3.93;;;12.30;99.90;;;;;;4192821;28;20539;-58
2023/12/02 00:03:30;;;;;;;10.07;4.47;;;12.20;99.90;;;;;;4192918;28;20024;-58
2023/12/02 00:05:31;;;;;;;6.47;3.33;;;12.30;99.90;;;;;;4192806;28;20029;-54
2023/12/02 00:07:32;;;;;;;12.47;5.37;;;12.30;99.90;;;;;;4191405;28;20497;-59
2023/12/02 00:09:34;;;;;;;15.17;7.20;;;12.30;99.90;;;;;;4192273;28;20081;-56
2023/12/02 00:11:35;;;;;;;13.17;5.57;;;12.20;99.90;;;;;;4192652;28;20029;-57
2023/12/02 00:13:36;;;;;;;8.33;4.83;;;12.10;99.90;;;;;;4191552;28;20048;-58
2023/12/02 00:15:38;;;;;;;8.93;4.70;;;12.00;99.90;;;;;;4192426;28;20435;-58
2023/12/02 00:17:39;;;;;;;8.87;4.33;;;12.00;99.90;;;;;;4192489;28;20578;-56
2023/12/02 00:19:40;;;;;;;9.13;4.47;;;12.00;99.90;;;;;;4191324;28;20518;-58
2023/12/02 00:21:42;;;;;;;9.47;4.63;;;12.00;99.90;;;;;;4192254;28;20542;-57
2023/12/02 00:23:43;;;;;;;6.23;3.97;;;11.90;99.90;;;;;;4192020;28;20553;-56
2023/12/02 00:25:44;;;;;;;11.83;4.90;;;12.00;99.90;;;;;;4191635;28;20056;-57
2023/12/02 00:27:45;;;;;;;10.27;3.90;;;12.10;99.90;;;;;;4191334;28;20117;-58
2023/12/02 00:29:46;;;;;;;9.90;4.77;;;12.10;99.90;;;;;;4192284;28;20082;-56
2023/12/02 00:31:47;;;;;;;9.40;4.17;;;12.10;99.90;;;;;;4194722;28;20033;-57
2023/12/02 00:33:49;;;;;;;10.67;4.43;;;12.20;99.90;;;;;;4195431;28;20028;-55
2023/12/02 00:35:50;;;;;;;12.87;5.33;;;12.20;99.90;;;;;;4195127;28;20431;-57
2023/12/02 00:37:51;;;;;;;8.47;3.77;;;12.30;99.90;;;;;;4195366;28;20048;-57
2023/12/02 00:39:52;;;;;;;6.77;2.70;;;12.20;99.90;;;;;;4195616;28;20066;-57
2023/12/02 00:41:53;;;;;;;6.53;4.13;;;12.30;99.90;;;;;;4195024;28;20040;-57
2023/12/02 00:43:55;;;;;;;7.37;2.97;;;12.40;99.90;;;;;;4195650;28;20028;-58
2023/12/02 00:45:56;;;;;;;4.03;2.60;;;12.60;99.90;;;;;;4195181;28;20490;-59
2023/12/02 00:47:57;;;;;;;3.23;2.07;;;12.70;99.90;;;;;;4194830;28;20500;-59
2023/12/02 00:49:58;;;;;;;2.53;1.50;;;12.80;99.90;;;;;;4195521;28;20040;-59
2023/12/02 00:51:59;;;;;;;7.20;2.00;;;12.80;99.90;;;;;;4194933;28;20334;-57
2023/12/02 00:54:00;;;;;;;3.60;1.60;;;13.00;99.90;;;;;;4194804;28;20425;-59
2023/12/02 00:56:02;;;;;;;6.43;1.60;;;13.00;99.90;;;;;;4194413;28;20029;-59
2023/12/02 00:58:03;;;;;;;3.50;1.10;;;13.00;99.90;;;;;;4194374;28;20056;-58
2023/12/02 01:00:05;;;;;;;3.97;1.03;;;13.00;99.90;;;;;;4194557;28;20134;-58
2023/12/02 01:02:06;;;;;;;5.07;1.37;;;13.00;99.90;;;;;;4194607;28;20042;-58
2023/12/02 01:04:08;;;;;;;2.50;1.30;;;13.00;99.90;;;;;;4194730;28;20048;-56
2023/12/02 01:06:09;;;;;;;3.10;1.03;;;12.90;99.90;;;;;;4194428;28;20082;-57
2023/12/02 01:08:10;;;;;;;1.80;1.00;;;12.90;99.90;;;;;;4194939;28;20070;-57
2023/12/02 01:10:12;;;;;;;5.27;1.30;;;12.80;99.90;;;;;;4194806;28;20094;-57
2023/12/02 01:12:13;;;;;;;3.70;1.10;;;12.80;99.90;;;;;;4194450;28;20040;-58
2023/12/02 01:14:14;;;;;;;4.33;1.43;;;12.70;99.90;;;;;;4194079;28;20121;-58
2023/12/02 01:16:15;;;;;;;3.77;1.20;;;12.60;99.90;;;;;;4176648;28;20037;-59
2023/12/02 01:18:16;;;;;;;7.53;1.63;;;12.60;99.90;;;;;;4194789;28;20044;-56
2023/12/02 01:20:18;;;;;;;6.47;1.20;;;12.60;99.90;;;;;;4194844;28;20086;-59
2023/12/02 01:22:19;;;;;;;5.00;1.00;;;12.70;99.90;;;;;;4194913;28;20040;-58
2023/12/02 01:24:21;;;;;;;3.67;1.00;;;12.70;99.90;;;;;;4194126;28;20453;-58
2023/12/02 01:26:23;;;;;;;4.77;1.30;;;12.80;99.90;;;;;;4193981;28;20048;-57
2023/12/02 01:28:24;;;;;;;2.60;1.30;;;12.90;99.90;;;;;;4193782;28;20094;-59
2023/12/02 01:30:27;;;;;;;1.33;0.90;;;12.90;99.90;;;;;;4194431;28;20090;-58
2023/12/02 01:32:29;;;;;;;5.00;1.50;;;12.90;99.90;;;;;;4193365;28;20094;-58
2023/12/02 01:34:31;;;;;;;4.50;1.63;;;12.80;99.90;;;;;;4194422;28;20473;-58
2023/12/02 01:36:32;;;;;;;3.23;1.80;;;12.70;99.90;;;;;;4194967;28;20588;-58
2023/12/02 01:38:33;;;;;;;5.83;2.47;;;12.60;99.90;;;;;;4194697;28;20120;-55
2023/12/02 01:40:34;;;;;;;3.50;1.37;;;12.50;99.90;;;;;;4194235;28;20090;-57
2023/12/02 01:42:35;;;;;;;3.90;1.50;;;12.50;99.90;;;;;;4193227;28;20052;-59
2023/12/02 01:44:37;;;;;;;4.43;1.90;;;12.50;99.90;;;;;;4193423;28;20435;-55
2023/12/02 01:46:38;;;;;;;3.17;1.60;;;12.40;99.90;;;;;;4193624;28;20044;-57
2023/12/02 01:48:39;;;;;;;6.20;2.30;;;12.40;99.90;;;;;;4194346;28;20090;-59
2023/12/02 01:50:40;;;;;;;6.90;2.63;;;12.40;99.90;;;;;;4194435;28;20036;-55
2023/12/02 01:52:42;;;;;;;6.27;1.60;;;12.30;99.90;;;;;;4193923;28;20542;-55
2023/12/02 01:54:43;;;;;;;5.60;1.30;;;12.30;99.90;;;;;;4193528;28;20048;-58
2023/12/02 01:56:44;;;;;;;5.73;1.70;;;12.30;99.90;;;;;;4193622;28;20086;-58
2023/12/02 01:58:47;;;;;;;3.57;1.87;;;12.30;99.90;;;;;;4194251;28;20427;-58
2023/12/02 02:00:48;;;;;;;5.07;1.40;;;12.30;99.90;;;;;;4194464;28;20029;-59
2023/12/02 02:02:49;;;;;;;8.13;3.07;;;12.40;99.90;;;;;;4194360;28;20082;-57
2023/12/02 02:04:50;;;;;;;5.90;2.27;;;12.30;99.90;;;;;;4194212;28;20040;-57
2023/12/02 02:06:52;;;;;;;7.77;2.17;;;12.30;99.90;;;;;;4193049;28;20446;-55
2023/12/02 02:08:53;;;;;;;5.90;1.30;;;12.30;99.90;;;;;;4193809;28;20500;-57
2023/12/02 02:10:56;;;;;;;4.73;2.13;;;12.30;99.90;;;;;;4194306;28;20109;-57
2023/12/02 02:12:57;;;;;;;6.90;2.00;;;12.40;99.90;;;;;;4193674;28;20048;-57
2023/12/02 02:15:00;;;;;;;4.63;2.00;;;12.40;99.90;;;;;;4193525;28;20068;-58
2023/12/02 02:17:01;;;;;;;8.73;2.30;;;12.50;99.90;;;;;;4193633;28;20094;-57
2023/12/02 02:19:03;;;;;;;16.93;4.80;;;12.50;99.90;;;;;;4193704;28;20045;-58
2023/12/02 02:21:04;;;;;;;7.30;2.53;;;12.30;99.90;;;;;;4193439;28;20500;-58
2023/12/02 02:23:05;;;;;;;3.77;1.93;;;12.20;99.90;;;;;;4193532;28;20143;-57
2023/12/02 02:25:07;;;;;;;9.37;2.30;;;12.10;99.90;;;;;;4194001;28;20538;-58
2023/12/02 02:27:08;;;;;;;9.97;2.43;;;12.20;99.90;;;;;;4193712;28;20469;-57
2023/12/02 02:29:09;;;;;;;6.30;2.33;;;12.20;99.90;;;;;;4193433;28;20040;-59
2023/12/02 02:31:11;;;;;;;6.93;2.53;;;12.20;99.90;;;;;;4193498;28;20032;-58
2023/12/02 02:33:12;;;;;;;7.70;2.93;;;12.30;99.90;;;;;;4193244;28;20028;-57
2023/12/02 02:35:13;;;;;;;7.00;2.93;;;12.30;99.90;;;;;;4194019;28;20369;-58
2023/12/02 02:37:15;;;;;;;9.93;3.40;;;12.30;99.90;;;;;;4194070;28;20046;-55
2023/12/02 02:39:16;;;;;;;6.37;2.83;;;12.30;99.90;;;;;;4193157;28;20060;-58
2023/12/02 02:41:17;;;;;;;6.27;2.30;;;12.20;99.90;;;;;;4193367;28;20098;-55
2023/12/02 02:43:18;;;;;;;5.07;2.93;;;12.10;99.90;;;;;;4193021;28;20443;-57
2023/12/02 02:45:19;;;;;;;8.57;3.57;;;12.10;99.90;;;;;;4193172;28;20481;-58
2023/12/02 02:47:21;;;;;;;13.40;5.30;;;11.90;99.90;;;;;;4192664;28;20082;-56
2023/12/02 02:49:22;;;;;;;8.60;3.07;;;11.80;99.90;;;;;;4194368;28;20036;-57
2023/12/02 02:51:23;;;;;;;6.37;2.90;;;11.60;99.90;;;;;;4192365;28;20511;-58
2023/12/02 02:53:24;;;;;;;10.10;4.23;;;11.50;99.90;;;;;;4192630;28;20058;-58
2023/12/02 02:55:25;;;;;;;9.20;3.90;;;11.40;99.90;;;;;;4191172;28;20575;-57
2023/12/02 02:57:26;;;;;;;5.63;3.50;;;11.30;99.90;;;;;;4192788;28;20040;-58
2023/12/02 02:59:28;;;;;;;6.83;4.27;;;11.20;99.90;;;;;;4193240;28;20098;-51
2023/12/02 03:01:29;;;;;;;9.73;4.97;;;11.10;99.90;;;;;;4193681;28;20487;-57
2023/12/02 03:03:30;;;;;;;7.13;4.43;;;11.00;99.90;;;;;;4192607;28;20094;-56
2023/12/02 03:05:31;;;;;;;9.07;5.13;;;11.00;99.90;;;;;;4192787;28;20028;-56
2023/12/02 03:07:34;;;;;;;7.00;3.00;;;11.00;99.90;;;;;;4192533;28;20469;-57
2023/12/02 03:09:35;;;;;;;10.17;5.00;;;10.90;99.90;;;;;;4193162;28;20024;-56
2023/12/02 03:11:36;;;;;;;9.17;5.50;;;10.90;99.90;;;;;;4175721;28;20483;-57
2023/12/02 03:13:38;;;;;;;5.53;2.93;;;10.80;99.90;;;;;;4192477;28;20040;-56
2023/12/02 03:15:39;;;;;;;11.30;4.33;;;10.80;99.90;;;;;;4192673;28;20485;-57
2023/12/02 03:17:40;;;;;;;11.03;4.10;;;10.80;99.90;;;;;;4192569;28;20044;-57
2023/12/02 03:19:41;;;;;;;6.73;3.10;;;10.90;99.90;;;;;;4193786;28;20040;-57
2023/12/02 03:21:42;;;;;;;7.47;3.13;;;10.90;99.90;;;;;;4193138;28;20749;-58
2023/12/02 03:23:45;;;;;;;7.13;3.00;;;11.10;99.90;;;;;;4192603;28;20048;-55
2023/12/02 03:25:46;;;;;;;8.60;3.40;;;11.10;99.90;;;;;;4192346;28;20028;-58
2023/12/02 03:27:47;;;;;;;7.67;3.57;;;11.10;99.90;;;;;;4193186;28;20703;-58
2023/12/02 03:29:49;;;;;;;9.07;3.67;;;11.00;99.90;;;;;;4191712;28;20036;-58
2023/12/02 03:31:50;;;;;;;7.80;3.37;;;10.90;99.90;;;;;;4192686;28;20024;-57
2023/12/02 03:33:51;;;;;;;7.27;2.23;;;10.90;99.90;;;;;;4174022;28;20095;-57
2023/12/02 03:35:52;;;;;;;6.23;2.43;;;11.00;99.90;;;;;;4182821;28;20094;-58
2023/12/02 03:37:54;;;;;;;6.27;2.40;;;11.10;99.90;;;;;;4193024;28;20021;-58
2023/12/02 03:39:55;;;;;;;9.73;2.70;;;11.20;99.90;;;;;;4192991;28;20390;-57
2023/12/02 03:41:56;;;;;;;9.40;3.40;;;11.30;99.90;;;;;;4192115;28;20040;-57
2023/12/02 03:43:58;;;;;;;7.13;2.77;;;11.30;99.90;;;;;;4192085;28;20128;-56
2023/12/02 03:45:59;;;;;;;6.27;2.77;;;11.30;99.90;;;;;;4192264;28;20529;-55
2023/12/02 03:48:00;;;;;;;6.70;2.57;;;11.40;99.90;;;;;;4192432;28;20020;-55
2023/12/02 03:50:02;;;;;;;5.50;2.17;;;11.50;99.90;;;;;;4193073;28;20040;-55
2023/12/02 03:52:04;;;;;;;5.37;2.30;;;11.60;99.90;;;;;;4191656;28;20040;-57
2023/12/02 03:54:05;;;;;;;7.37;2.10;;;11.70;99.90;;;;;;4191257;28;20120;-57
2023/12/02 03:56:07;;;;;;;8.90;2.57;;;11.80;99.90;;;;;;4191989;28;20485;-58
2023/12/02 03:58:09;;;;;;;7.73;3.40;;;11.90;99.90;;;;;;4192326;28;20020;-58
2023/12/02 04:00:13;;;;;;;7.67;3.77;;;11.90;99.90;;;;;;4191596;28;20387;-57
2023/12/02 04:02:14;;;;;;;13.33;5.97;;;12.00;99.90;;;;;;4191407;28;20033;-57
2023/12/02 04:04:16;;;;;;;13.07;5.97;;;12.00;99.90;;;;;;4192244;28;20044;-59
2023/12/02 04:06:17;;;;;;;8.47;3.93;;;12.00;99.90;;;;;;4182496;28;20048;-51
2023/12/02 04:08:18;;;;;;;13.63;4.43;;;12.00;99.90;;;;;;4192020;28;20029;-58
2023/12/02 04:10:19;;;;;;;4.90;2.10;;;12.00;99.90;;;;;;4192720;28;20028;-58
2023/12/02 04:12:20;;;;;;;8.70;2.90;;;12.10;99.90;;;;;;4191860;28;20102;-54
2023/12/02 04:14:22;;;;;;;4.77;2.23;;;12.10;99.90;;;;;;4191807;28;20090;-57
2023/12/02 04:16:23;;;;;;;3.57;2.10;;;12.30;99.90;;;;;;4191849;28;20097;-57
2023/12/02 04:18:24;;;;;;;3.93;1.47;;;12.40;99.90;;;;;;4191890;28;20405;-56
2023/12/02 04:20:25;;;;;;;5.23;1.23;;;12.60;99.90;;;;;;4192026;28;20040;-57
2023/12/02 04:22:26;;;;;;;4.80;1.03;;;12.80;99.90;;;;;;4192200;28;20044;-58
2023/12/02 04:24:28;;;;;;;3.63;1.30;;;13.10;99.90;;;;;;4192353;28;20036;-57
2023/12/02 04:26:29;;;;;;;2.60;1.00;;;13.40;99.90;;;;;;4192506;28;20104;-58
2023/12/02 04:28:30;;;;;;;2.97;0.90;;;13.50;99.90;;;;;;4191301;28;20067;-57
2023/12/02 04:30:32;;;;;;;3.17;1.13;;;13.60;99.90;;;;;;4192050;28;20020;-56
2023/12/02 04:32:33;;;;;;;3.40;1.10;;;13.80;99.90;;;;;;4192110;28;20024;-57
2023/12/02 04:34:35;;;;;;;6.27;1.30;;;13.80;99.90;;;;;;4173478;28;20037;-58
2023/12/02 04:36:36;;;;;;;4.50;1.07;;;13.70;99.90;;;;;;4191256;28;20044;-58
2023/12/02 04:38:37;;;;;;;2.47;1.20;;;13.60;99.90;;;;;;4190573;28;20878;-52
2023/12/02 04:40:39;;;;;;;6.30;1.20;;;13.60;99.90;;;;;;4192081;28;20021;-54
2023/12/02 04:42:40;;;;;;;6.37;1.23;;;13.60;99.90;;;;;;4191843;28;20288;-57
2023/12/02 04:44:42;;;;;;;5.50;1.83;;;13.50;99.90;;;;;;4191409;28;20181;-58
2023/12/02 04:46:43;;;;;;;2.90;1.30;;;13.40;99.90;;;;;;4191493;28;20056;-58
2023/12/02 04:48:45;;;;;;;2.30;1.00;;;13.40;99.90;;;;;;4191819;28;20117;-59
2023/12/02 04:50:46;;;;;;;3.50;1.60;;;13.30;99.90;;;;;;4192626;28;20391;-59
2023/12/02 04:52:47;;;;;;;7.10;1.67;;;13.20;99.90;;;;;;4191055;28;20078;-57
2023/12/02 04:54:48;;;;;;;3.53;0.83;;;13.20;99.90;;;;;;4192118;28;20036;-59
2023/12/02 04:56:49;;;;;;;6.10;1.33;;;13.30;99.90;;;;;;4190890;28;20323;-57
2023/12/02 04:58:51;;;;;;;7.90;1.50;;;13.20;99.90;;;;;;4191236;28;20696;-59
2023/12/02 05:00:53;;;;;;;8.53;1.70;;;13.20;99.90;;;;;;4191320;28;20033;-57
2023/12/02 05:02:54;;;;;;;5.57;1.60;;;13.30;99.90;;;;;;4191970;28;20424;-57
2023/12/02 05:04:56;;;;;;;5.13;1.60;;;13.20;99.90;;;;;;4191221;28;20090;-58
2023/12/02 05:06:57;;;;;;;4.43;1.80;;;13.20;99.90;;;;;;4192077;28;20037;-54
2023/12/02 05:08:58;;;;;;;6.87;3.10;;;13.10;99.90;;;;;;4192125;28;20459;-58
2023/12/02 05:10:59;;;;;;;5.93;1.97;;;13.00;99.90;;;;;;4191643;28;20496;-59
2023/12/02 05:13:00;;;;;;;6.90;1.73;;;12.90;99.90;;;;;;4191179;28;20488;-57
2023/12/02 05:15:03;;;;;;;2.40;1.30;;;12.80;99.90;;;;;;4191440;28;20501;-57
2023/12/02 05:17:04;;;;;;;7.73;2.10;;;12.80;99.90;;;;;;4192180;28;20526;-58
2023/12/02 05:19:06;;;;;;;4.33;1.73;;;12.80;99.90;;;;;;4194602;28;20045;-57
2023/12/02 05:21:09;;;;;;;5.63;1.80;;;12.80;99.90;;;;;;4195265;28;20033;-58
2023/12/02 05:23:10;;;;;;;4.23;1.80;;;12.90;99.90;;;;;;4195143;28;20078;-59
2023/12/02 05:25:11;;;;;;;3.93;1.10;;;12.90;99.90;;;;;;4195101;28;20032;-57
2023/12/02 05:27:12;;;;;;;5.87;1.70;;;13.00;99.90;;;;;;4195047;28;20032;-59
2023/12/02 05:29:14;;;;;;;7.33;2.20;;;13.10;99.90;;;;;;4194951;28;20033;-59
2023/12/02 05:31:17;;;;;;;3.57;1.33;;;13.10;99.90;;;;;;4195060;28;20025;-58
2023/12/02 05:33:22;;;;;;;7.77;3.13;;;13.20;99.90;;;;;;4195114;28;20534;-57
2023/12/02 05:35:23;;;;;;;6.73;2.50;;;13.20;99.90;;;;;;4193886;28;20041;-59
2023/12/02 05:37:24;;;;;;;5.43;1.73;;;13.00;99.90;;;;;;4194375;28;20028;-59
2023/12/02 05:39:25;;;;;;;4.80;1.87;;;12.80;99.90;;;;;;4194465;28;20048;-58
2023/12/02 05:41:26;;;;;;;3.33;1.43;;;12.60;99.90;;;;;;4195150;28;20029;-58
2023/12/02 05:43:27;;;;;;;7.93;2.60;;;12.50;99.90;;;;;;4194841;28;20028;-57
2023/12/02 05:45:29;;;;;;;7.77;1.90;;;12.50;99.90;;;;;;4194527;28;20546;-58
2023/12/02 05:47:30;;;;;;;6.63;2.40;;;12.50;99.90;;;;;;4193785;28;20044;-59
2023/12/02 05:49:32;;;;;;;5.73;2.37;;;12.50;99.90;;;;;;4195250;28;20032;-58
2023/12/02 05:51:40;;;;;;;5.53;2.30;;;12.50;99.90;;;;;;4193889;28;20056;-58
2023/12/02 05:53:42;;;;;;;9.77;3.03;;;12.50;99.90;;;;;;4194073;28;20044;-59
2023/12/02 05:55:43;;;;;;;4.50;2.73;;;12.50;99.90;;;;;;4193912;28;20049;-59
2023/12/02 05:57:44;;;;;;;6.87;2.80;;;12.50;99.90;;;;;;4194586;28;20366;-56
2023/12/02 05:59:45;;;;;;;8.53;3.70;;;12.60;99.90;;;;;;4193772;28;20153;-58
2023/12/02 06:01:46;;;;;;;13.00;6.03;;;12.60;99.90;;;;;;4193986;28;20029;-57
2023/12/02 06:03:49;;;;;;;8.57;3.87;;;12.60;99.90;;;;;;4193519;28;20052;-60
2023/12/02 06:05:50;;;;;;;12.70;4.23;;;12.70;99.90;;;;;;4193929;28;20037;-59
2023/12/02 06:07:51;;;;;;;8.87;3.17;;;12.60;99.90;;;;;;4193894;28;20036;-58
2023/12/02 06:09:52;;;;;;;7.60;3.40;;;12.60;99.90;;;;;;4194355;28;20483;-56
2023/12/02 06:11:53;;;;;;;9.63;3.17;;;12.70;99.90;;;;;;4194245;28;20090;-59
2023/12/02 06:13:55;;;;;;;5.60;2.50;;;12.70;99.90;;;;;;4194011;28;20113;-58
2023/12/02 06:15:56;;;;;;;6.87;2.13;;;12.70;99.90;;;;;;4193592;28;20106;-58
2023/12/02 06:17:57;;;;;;;7.67;3.13;;;12.60;99.90;;;;;;4194389;28;20506;-59
2023/12/02 06:19:58;;;;;;;6.50;1.80;;;12.60;99.90;;;;;;4193961;28;20048;-60
2023/12/02 06:21:59;;;;;;;6.13;2.30;;;12.60;99.90;;;;;;4193749;28;20044;-58
2023/12/02 06:24:00;;;;;;;7.67;2.40;;;12.60;99.90;;;;;;4193225;28;20522;-56
2023/12/02 06:26:02;;;;;;;5.67;1.17;;;12.60;99.90;;;;;;4193361;28;20086;-57
2023/12/02 06:28:04;;;;;;;6.03;1.90;;;12.50;99.90;;;;;;4192951;28;20078;-59
2023/12/02 06:30:06;;;;;;;9.43;2.97;;;12.40;99.90;;;;;;4193086;28;20078;-59
2023/12/02 06:32:07;;;;;;;4.87;2.87;;;12.40;99.90;;;;;;4193659;28;20072;-58
2023/12/02 06:34:09;;;;;;;9.23;4.57;;;12.40;99.90;;;;;;4192436;28;20463;-59
2023/12/02 06:36:10;;;;;;;7.87;3.80;;;12.30;99.90;;;;;;4192416;28;20032;-56
2023/12/02 06:38:12;;;;;;;6.70;2.93;;;12.30;99.90;;;;;;4192991;28;20158;-58
2023/12/02 06:40:13;;;;;;;7.83;3.73;;;12.20;99.90;;;;;;4193529;28;20036;-59
2023/12/02 06:42:14;;;;;;;10.10;4.07;;;12.20;99.90;;;;;;4192693;28;20090;-58
2023/12/02 06:44:17;;;;;;;7.30;2.83;;;12.20;99.90;;;;;;4193449;28;20346;-58
2023/12/02 06:46:23;;;;;;;9.10;2.70;;;12.10;99.90;;;;;;4192657;28;20045;-58
2023/12/02 06:48:24;;;;;;;5.70;2.80;;;12.10;99.90;;;;;;4193733;28;20036;-59
2023/12/02 06:50:25;;;;;;;5.90;2.50;;;12.10;99.90;;;;;;4193459;28;20070;-57
2023/12/02 06:52:26;;;;;;;3.53;2.03;;;12.10;99.90;;;;;;4192650;28;20082;-57
2023/12/02 06:54:27;;;;;;;4.00;2.30;;;12.30;99.90;;;;;;4192623;28;20036;-59
2023/12/02 06:56:29;;;;;;;9.13;4.47;;;12.30;99.90;;;;;;4193572;28;20044;-58
2023/12/02 06:58:31;;;;;;;7.13;3.87;;;12.30;99.90;;;;;;4192598;28;20608;-58
2023/12/02 07:00:32;;;;;;;10.17;4.17;;;12.20;99.90;;;;;;4192372;28;20048;-58
2023/12/02 07:02:34;;;;;;;6.17;3.60;;;12.10;99.90;;;;;;4193411;28;20102;-59
2023/12/02 07:04:35;;;;;;;8.50;3.93;;;12.00;99.90;;;;;;4192651;28;20423;-58
2023/12/02 07:06:40;;;;;;;10.33;2.60;;;11.90;99.90;;;;;;4191749;28;20094;-59
2023/12/02 07:08:41;;;;;;;5.07;2.03;;;12.00;99.90;;;;;;4192308;28;20498;-57
2023/12/02 07:10:42;;;;;;;9.50;1.83;;;12.10;99.90;;;;;;4191681;28;20082;-58
2023/12/02 07:12:44;;;;;;;5.50;2.20;;;12.30;99.90;;;;;;4191871;28;20037;-57
2023/12/02 07:14:45;;;;;;;6.57;2.30;;;12.40;99.90;;;;;;4193075;28;20024;-57
2023/12/02 07:16:46;;;;;;;9.00;2.33;;;12.60;99.90;;;;;;4192022;28;20036;-58
2023/12/02 07:18:48;;;;;;;9.60;1.90;;;12.60;99.90;;;;;;4192442;28;20090;-58
2023/12/02 07:20:49;;;;;;;5.60;2.00;;;12.70;99.90;;;;;;4192412;28;20044;-57
2023/12/02 07:22:50;;;;;;;8.33;2.10;;;12.80;99.90;;;;;;4192229;28;20437;-58
2023/12/02 07:24:51;;;;;;;5.20;2.37;;;12.80;99.90;;;;;;4192802;28;20036;-58
2023/12/02 07:26:52;;;;;;;3.97;2.00;;;12.90;99.90;;;;;;4192917;28;20028;-58
2023/12/02 07:28:53;;;;;;;6.03;2.10;;;13.00;99.90;;;;;;4192893;28;20561;-58
2023/12/02 07:30:55;;;;;;;8.17;2.20;;;12.90;99.90;;;;;;4191881;28;20086;-57
2023/12/02 07:32:56;;;;;;;7.53;1.87;;;12.80;99.90;;;;;;4192650;28;20365;-57
2023/12/02 07:34:57;;;;;;;8.03;2.57;;;12.70;99.90;;;;;;4192568;28;20032;-58
2023/12/02 07:36:58;;;;;;;9.57;3.13;;;12.60;99.90;;;;;;4191498;28;20040;-59
2023/12/02 07:39:00;;;;;;;6.53;2.83;;;12.50;99.90;;;;;;4192412;28;20094;-57
2023/12/02 07:41:01;;;;;;;7.20;2.60;;;12.40;99.90;;;;;;4192130;28;20071;-59
2023/12/02 07:43:03;;;;;;;8.37;2.40;;;12.40;99.90;;;;;;4191836;28;20090;-59
2023/12/02 07:45:05;;;;;;;7.90;2.70;;;12.40;99.90;;;;;;4192582;28;20033;-58
2023/12/02 07:47:06;;;;;;;5.97;2.50;;;12.40;99.90;;;;;;4192264;28;20074;-57
2023/12/02 07:49:07;;;;;;;7.00;3.40;;;12.40;99.90;;;;;;4192466;28;20078;-56
2023/12/02 07:51:09;;;;;;;6.57;3.57;;;12.40;99.90;;;;;;4192694;28;21505;-58
2023/12/02 07:53:10;;;;;;;8.60;4.03;;;12.40;99.90;;;;;;4191513;28;20508;-60
2023/12/02 07:55:12;;;;;;;7.03;2.70;;;12.40;99.90;;;;;;4188459;28;20048;-60
2023/12/02 07:57:13;;;;;;;6.97;2.20;;;12.30;99.90;;;;;;4190851;28;20036;-60
2023/12/02 07:59:14;;;;;;;5.80;2.10;;;12.20;99.90;;;;;;4191206;28;20443;-55
2023/12/02 08:01:15;;;;;;;7.87;2.57;;;12.20;99.90;;;;;;4191423;28;20094;-58
2023/12/02 08:03:17;;;;;;;4.27;2.17;;;12.10;99.90;;;;;;4191000;28;20036;-56
2023/12/02 08:05:18;;;;;;;7.90;2.87;;;12.20;99.90;;;;;;4180791;28;20025;-54
2023/12/02 08:07:19;;;;;;;3.80;1.63;;;12.10;99.90;;;;;;4190963;28;20520;-57
2023/12/02 08:09:20;;;;;;;3.77;1.87;;;12.20;99.90;;;;;;4191931;28;20040;-58
2023/12/02 08:11:22;;;;;;;5.30;1.90;;;12.20;99.90;;;;;;4191317;28;20048;-59
2023/12/02 08:13:23;;;;;;;3.33;2.00;;;12.20;99.90;;;;;;4191026;28;20041;-61
2023/12/02 08:15:24;;;;;;;6.87;2.53;;;12.30;99.90;;;;;;4192274;28;20032;-59
2023/12/02 08:17:25;;;;;;;5.97;2.20;;;12.30;99.90;;;;;;4192163;28;20028;-59
2023/12/02 08:19:26;;;;;;;6.23;2.23;;;12.30;99.90;;;;;;4192633;28;20044;-61
2023/12/02 08:21:27;;;;;;;6.57;2.00;;;12.20;99.90;;;;;;4192269;28;20045;-59
2023/12/02 08:23:28;;;;;;;7.17;2.90;;;12.20;99.90;;;;;;4191868;28;20044;-61
2023/12/02 08:25:31;;;;;;;4.00;2.00;;;12.20;99.90;;;;;;4192446;28;20467;-59
2023/12/02 08:27:32;;;;;;;7.73;2.97;;;12.10;99.90;;;;;;4191974;28;20025;-61
2023/12/02 08:29:33;;;;;;;4.17;2.17;;;12.10;99.90;;;;;;4191227;28;20220;-60
2023/12/02 08:31:34;;;;;;;5.57;2.50;;;12.10;99.90;;;;;;4192171;28;20040;-58
2023/12/02 08:33:35;;;;;;;7.60;3.47;;;12.10;99.90;;;;;;4191735;28;20028;-60
2023/12/02 08:35:37;;;;;;;14.90;3.60;;;12.00;99.90;;;;;;4191854;28;20041;-60
2023/12/02 08:37:38;;;;;;;6.00;2.93;;;12.00;99.90;;;;;;4192298;28;20033;-58
2023/12/02 08:39:39;;;;;;;12.67;2.67;;;12.00;99.90;;;;;;4192237;28;20045;-58
2023/12/02 08:41:40;;;;;;;8.60;3.80;;;11.90;99.90;;;;;;4192287;28;20074;-59
2023/12/02 08:43:42;;;;;;;11.03;4.10;;;11.90;99.90;;;;;;4192308;28;20500;-58
2023/12/02 08:45:43;;;;;;;10.50;4.47;;;11.90;99.90;;;;;;4192297;28;20086;-55
2023/12/02 08:47:44;;;;;;;11.87;4.40;;;11.90;99.90;;;;;;4191311;28;20078;-60
2023/12/02 08:49:45;;;;;;;15.13;5.50;;;11.90;99.90;;;;;;4191881;28;20040;-61
2023/12/02 08:51:47;;;;;;;7.73;4.40;;;12.00;99.90;;;;;;4191664;28;20044;-59
2023/12/02 08:53:59;;;;;;;11.50;4.60;;;11.90;99.90;;;;;;4193814;28;20470;-54
2023/12/02 08:56:01;;;;;;;7.20;3.53;;;11.90;99.90;;;;;;4194435;28;20484;-58
2023/12/02 08:58:02;;;;;;;9.50;3.47;;;11.80;99.90;;;;;;4194663;28;20093;-61
2023/12/02 09:00:05;;;;;;;12.40;3.40;;;11.80;99.90;;;;;;4195181;28;20045;-59
2023/12/02 09:02:07;;;;;;;11.23;4.47;;;11.80;99.90;;;;;;4194640;28;20048;-56
2023/12/02 09:04:09;;;;;;;9.80;4.13;;;11.80;99.90;;;;;;4194368;28;20032;-57
2023/12/02 09:06:10;;;;;;;11.43;5.40;;;11.80;99.90;;;;;;4194481;28;20577;-58
2023/12/02 09:08:11;;;;;;;10.23;5.63;;;11.80;99.90;;;;;;4194607;28;20036;-59
2023/12/02 09:10:13;;;;;;;7.00;3.20;;;11.90;99.90;;;;;;4194664;28;20081;-56
2023/12/02 09:12:14;;;;;;;9.30;4.97;;;12.00;99.90;;;;;;4194597;28;20531;-59
2023/12/02 09:14:15;;;;;;;9.23;4.67;;;12.10;99.90;;;;;;4194137;28;20440;-58
2023/12/02 09:16:28;;;;;;;8.90;5.17;;;12.10;99.90;;;;;;4194345;28;20033;-60
2023/12/02 09:18:33;;;;;;;13.97;6.23;;;12.10;99.90;;;;;;4194898;28;20488;-57
2023/12/02 09:20:48;;;;;;;14.73;7.40;;;12.10;99.90;;;;;;4194278;28;20125;-60
2023/12/02 09:22:49;;;;;;;16.77;6.43;;;12.10;99.90;;;;;;4194033;28;20381;-59
2023/12/02 09:24:51;;;;;;;7.90;4.80;;;12.10;99.90;;;;;;4194135;28;20045;-56
2023/12/02 09:26:53;;;;;;;8.67;4.10;;;12.20;99.90;;;;;;4194977;28;20306;-60
2023/12/02 09:28:54;;;;;;;11.63;4.07;;;12.20;99.90;;;;;;4194911;28;20472;-58
2023/12/02 09:31:01;;;;;;;10.20;4.67;;;12.30;99.90;;;;;;4193989;28;20044;-59
2023/12/02 09:33:05;;;;;;;4.90;3.00;;;12.40;99.90;;;;;;4194569;28;20078;-57
2023/12/02 09:35:07;;;;;;;11.47;3.07;;;12.50;99.90;;;;;;4193916;28;20070;-59
2023/12/02 09:37:39;;;;;;;11.27;3.40;;;12.50;99.90;;;;;;4194741;28;20036;-59
2023/12/02 09:40:26;;;;;;;5.93;3.57;;;12.50;99.90;;;;;;4193816;28;20124;-55
2023/12/02 09:42:27;;;;;;;4.80;2.20;;;12.50;99.90;;;;;;4193995;28;20041;-60
2023/12/02 09:44:44;;;;;;;7.23;2.50;;;12.50;99.90;;;;;;4178801;28;20045;-58
2023/12/02 09:46:53;;;;;;;5.57;2.60;;;12.50;99.90;;;;;;4180376;28;20044;-58
2023/12/02 09:49:22;;;;;;;9.23;3.70;;;12.50;99.90;;;;;;4193860;28;20098;-49
2023/12/02 09:51:54;;;;;;;6.03;3.07;;;12.50;99.90;;;;;;4193557;28;20056;-56
2023/12/02 09:54:09;;;;;;;6.83;3.30;;;12.50;99.90;;;;;;4193489;28;20400;-62
2023/12/02 09:56:24;;;;;;;9.37;2.87;;;12.50;99.90;;;;;;4194502;28;20025;-58
2023/12/02 09:58:37;;;;;;;8.10;3.10;;;12.50;99.90;;;;;;4192844;28;20032;-63
2023/12/02 10:01:00;;;;;;;11.87;4.87;;;12.50;99.90;;;;;;4194150;28;20040;-60
2023/12/02 10:03:24;;;;;;;15.27;6.60;;;12.50;99.90;;;;;;4193210;28;20052;-65
2023/12/02 10:05:26;;;;;;;9.73;5.03;;;12.50;99.90;;;;;;4193307;28;20068;-58
2023/12/02 10:07:38;;;;;;;7.30;3.70;;;12.40;99.90;;;;;;4193289;28;20465;-58
2023/12/02 10:10:10;;;;;;;16.27;5.73;;;12.40;99.90;;;;;;4193864;28;20079;-58
2023/12/02 10:12:14;;;;;;;7.53;3.93;;;12.50;99.90;;;;;;4192920;28;20435;-58
2023/12/02 10:14:21;;;;;;;11.87;4.47;;;12.60;99.90;;;;;;4193571;28;20037;-57
2023/12/02 10:16:28;;;;;;;8.73;3.97;;;12.70;99.90;;;;;;4193237;28;20056;-61
2023/12/02 10:18:42;;;;;;;6.90;3.30;;;12.80;99.90;;;;;;4194123;28;20461;-60
2023/12/02 10:20:48;;;;;;;10.17;3.97;;;12.80;99.90;;;;;;4194226;28;20477;-57
2023/12/02 10:22:57;;;;;;;14.63;6.03;;;12.80;99.90;;;;;;4194021;28;20085;-61
2023/12/02 10:25:09;;;;;;;11.13;6.17;;;12.90;99.90;;;;;;4193048;28;20028;-57
2023/12/02 10:27:16;;;;;;;13.10;5.47;;;12.90;99.90;;;;;;4192880;28;20086;-52
2023/12/02 10:29:24;;;;;;;11.00;3.80;;;12.90;99.90;;;;;;4193204;28;20049;-59
2023/12/02 10:31:28;;;;;;;5.70;3.13;;;12.90;99.90;;;;;;4192576;28;20044;-58
2023/12/02 10:34:09;;;;;;;5.07;2.07;;;12.90;99.90;;;;;;4193157;28;20090;-58
2023/12/02 10:36:11;;;;;;;9.00;3.15;;;13.00;99.90;;;;;;4192741;28;20044;-60
2023/12/02 10:38:38;;;;;;;7.83;3.60;;;13.10;99.90;;;;;;4192933;28;20378;-57